sensor_id;sensor_type;location;lat;lon;timestamp;pressure;altitude;pressure_sealevel;temperature;humidity
47811;BME280;33575;52.600;7.318;2023-05-02T00:00:39;101615.07;;;12.61;87.10
47811;BME280;33575;52.600;7.318;2023-05-02T00:03:10;101616.00;;;12.68;86.92
47811;BME280;33575;52.600;7.318;2023-05-02T00:05:40;101616.46;;;12.58;88.40
47811;BME280;33575;52.600;7.318;2023-05-02T00:08:11;101618.69;;;12.54;88.38
47811;BME280;33575;52.600;7.318;2023-05-02T00:10:41;101620.93;;;12.59;87.67
47811;BME280;33575;52.600;7.318;2023-05-02T00:13:12;101619.72;;;12.61;87.80
47811;BME280;33575;52.600;7.318;2023-05-02T00:15:42;101616.15;;;12.48;88.56
47811;BME280;33575;52.600;7.318;2023-05-02T00:18:13;101619.67;;;12.47;88.46
47811;BME280;33575;52.600;7.318;2023-05-02T00:20:43;101618.62;;;12.46;88.71
47811;BME280;33575;52.600;7.318;2023-05-02T00:23:14;101617.24;;;12.11;90.43
47811;BME280;33575;52.600;7.318;2023-05-02T00:25:44;101618.88;;;12.12;90.24
47811;BME280;33575;52.600;7.318;2023-05-02T00:28:15;101614.79;;;12.06;89.93
47811;BME280;33575;52.600;7.318;2023-05-02T00:30:45;101614.97;;;12.13;89.10
47811;BME280;33575;52.600;7.318;2023-05-02T00:33:15;101619.88;;;12.27;88.90
47811;BME280;33575;52.600;7.318;2023-05-02T00:35:46;101618.30;;;12.29;88.54
47811;BME280;33575;52.600;7.318;2023-05-02T00:38:16;101622.52;;;12.33;88.53
47811;BME280;33575;52.600;7.318;2023-05-02T00:40:48;101624.47;;;12.19;89.45
47811;BME280;33575;52.600;7.318;2023-05-02T00:43:18;101622.74;;;12.14;89.50
47811;BME280;33575;52.600;7.318;2023-05-02T00:45:49;101622.09;;;12.19;88.91
47811;BME280;33575;52.600;7.318;2023-05-02T00:48:19;101628.21;;;12.22;88.73
47811;BME280;33575;52.600;7.318;2023-05-02T00:50:49;101625.11;;;12.20;89.90
47811;BME280;33575;52.600;7.318;2023-05-02T00:53:19;101626.36;;;12.10;90.08
47811;BME280;33575;52.600;7.318;2023-05-02T00:55:50;101627.51;;;12.14;89.75
47811;BME280;33575;52.600;7.318;2023-05-02T00:58:20;101627.79;;;12.11;90.41
47811;BME280;33575;52.600;7.318;2023-05-02T01:01:01;101629.03;;;12.18;90.10
47811;BME280;33575;52.600;7.318;2023-05-02T01:03:30;101625.65;;;11.97;91.52
47811;BME280;33575;52.600;7.318;2023-05-02T01:05:58;101626.99;;;12.18;90.50
47811;BME280;33575;52.600;7.318;2023-05-02T01:08:28;101628.30;;;12.14;91.14
47811;BME280;33575;52.600;7.318;2023-05-02T01:11:01;101627.37;;;12.31;89.26
47811;BME280;33575;52.600;7.318;2023-05-02T01:13:27;101626.23;;;12.34;89.83
47811;BME280;33575;52.600;7.318;2023-05-02T01:15:57;101626.85;;;12.24;90.49
47811;BME280;33575;52.600;7.318;2023-05-02T01:18:27;101630.62;;;12.23;91.57
47811;BME280;33575;52.600;7.318;2023-05-02T01:20:58;101634.61;;;12.30;91.13
47811;BME280;33575;52.600;7.318;2023-05-02T01:23:31;101634.98;;;12.30;91.44
47811;BME280;33575;52.600;7.318;2023-05-02T01:26:05;101638.04;;;12.26;91.71
47811;BME280;33575;52.600;7.318;2023-05-02T01:28:33;101641.37;;;12.23;93.05
47811;BME280;33575;52.600;7.318;2023-05-02T01:30:56;101645.39;;;11.98;94.98
47811;BME280;33575;52.600;7.318;2023-05-02T01:33:27;101645.48;;;11.74;96.60
47811;BME280;33575;52.600;7.318;2023-05-02T01:35:57;101650.03;;;11.36;98.48
47811;BME280;33575;52.600;7.318;2023-05-02T01:38:27;101653.60;;;11.40;98.50
47811;BME280;33575;52.600;7.318;2023-05-02T01:40:58;101656.87;;;11.13;99.86
47811;BME280;33575;52.600;7.318;2023-05-02T01:43:29;101655.36;;;10.97;100.00
47811;BME280;33575;52.600;7.318;2023-05-02T01:45:59;101659.92;;;10.62;100.00
47811;BME280;33575;52.600;7.318;2023-05-02T01:48:29;101664.06;;;10.53;100.00
47811;BME280;33575;52.600;7.318;2023-05-02T01:51:00;101662.97;;;10.58;100.00
47811;BME280;33575;52.600;7.318;2023-05-02T01:53:32;101667.76;;;10.43;100.00
47811;BME280;33575;52.600;7.318;2023-05-02T01:56:00;101665.39;;;10.44;100.00
47811;BME280;33575;52.600;7.318;2023-05-02T01:58:32;101672.01;;;10.30;100.00
47811;BME280;33575;52.600;7.318;2023-05-02T02:01:02;101666.20;;;10.44;100.00
47811;BME280;33575;52.600;7.318;2023-05-02T02:03:32;101670.27;;;10.25;100.00
47811;BME280;33575;52.600;7.318;2023-05-02T02:06:03;101672.40;;;10.21;100.00
47811;BME280;33575;52.600;7.318;2023-05-02T02:08:33;101679.84;;;10.17;100.00
47811;BME280;33575;52.600;7.318;2023-05-02T02:11:08;101684.87;;;10.10;100.00
47811;BME280;33575;52.600;7.318;2023-05-02T02:13:38;101694.60;;;9.89;100.00
47811;BME280;33575;52.600;7.318;2023-05-02T02:16:07;101695.11;;;9.73;100.00
47811;BME280;33575;52.600;7.318;2023-05-02T02:18:36;101695.70;;;9.72;100.00
47811;BME280;33575;52.600;7.318;2023-05-02T02:21:08;101703.89;;;9.58;100.00
47811;BME280;33575;52.600;7.318;2023-05-02T02:23:37;101699.40;;;9.70;100.00
47811;BME280;33575;52.600;7.318;2023-05-02T02:26:07;101703.92;;;9.65;100.00
47811;BME280;33575;52.600;7.318;2023-05-02T02:28:38;101709.11;;;9.50;100.00
47811;BME280;33575;52.600;7.318;2023-05-02T02:31:08;101713.16;;;9.73;100.00
47811;BME280;33575;52.600;7.318;2023-05-02T02:33:39;101710.80;;;9.79;100.00
47811;BME280;33575;52.600;7.318;2023-05-02T02:36:13;101715.27;;;9.80;100.00
47811;BME280;33575;52.600;7.318;2023-05-02T02:38:43;101714.47;;;9.61;100.00
47811;BME280;33575;52.600;7.318;2023-05-02T02:41:13;101719.46;;;9.66;100.00
47811;BME280;33575;52.600;7.318;2023-05-02T02:43:52;101723.33;;;9.71;100.00
47811;BME280;33575;52.600;7.318;2023-05-02T02:46:27;101723.57;;;9.82;100.00
47811;BME280;33575;52.600;7.318;2023-05-02T02:48:47;101731.57;;;9.77;100.00
47811;BME280;33575;52.600;7.318;2023-05-02T02:51:19;101735.06;;;9.88;100.00
47811;BME280;33575;52.600;7.318;2023-05-02T02:53:51;101741.11;;;10.02;99.59
47811;BME280;33575;52.600;7.318;2023-05-02T02:56:15;101747.01;;;9.89;99.83
47811;BME280;33575;52.600;7.318;2023-05-02T02:58:48;101745.40;;;10.13;98.57
47811;BME280;33575;52.600;7.318;2023-05-02T03:01:17;101747.97;;;9.95;98.61
47811;BME280;33575;52.600;7.318;2023-05-02T03:03:47;101750.48;;;10.13;98.48
47811;BME280;33575;52.600;7.318;2023-05-02T03:06:16;101757.95;;;9.99;98.17
47811;BME280;33575;52.600;7.318;2023-05-02T03:08:47;101764.66;;;9.98;98.27
47811;BME280;33575;52.600;7.318;2023-05-02T03:11:17;101768.13;;;10.05;97.88
47811;BME280;33575;52.600;7.318;2023-05-02T03:13:48;101771.74;;;10.00;97.95
47811;BME280;33575;52.600;7.318;2023-05-02T03:16:31;101771.75;;;9.90;98.13
47811;BME280;33575;52.600;7.318;2023-05-02T03:18:49;101777.21;;;10.04;97.33
47811;BME280;33575;52.600;7.318;2023-05-02T03:21:20;101780.71;;;10.21;96.93
47811;BME280;33575;52.600;7.318;2023-05-02T03:23:50;101780.72;;;10.33;96.43
47811;BME280;33575;52.600;7.318;2023-05-02T03:26:21;101785.60;;;10.40;95.99
47811;BME280;33575;52.600;7.318;2023-05-02T03:28:51;101790.16;;;10.16;96.68
47811;BME280;33575;52.600;7.318;2023-05-02T03:31:23;101789.88;;;10.28;96.23
47811;BME280;33575;52.600;7.318;2023-05-02T03:33:53;101798.25;;;10.23;96.97
47811;BME280;33575;52.600;7.318;2023-05-02T03:36:23;101801.93;;;10.29;96.05
47811;BME280;33575;52.600;7.318;2023-05-02T03:38:53;101803.58;;;10.36;95.81
47811;BME280;33575;52.600;7.318;2023-05-02T03:41:24;101810.72;;;10.40;95.86
47811;BME280;33575;52.600;7.318;2023-05-02T03:43:55;101820.85;;;10.17;96.92
47811;BME280;33575;52.600;7.318;2023-05-02T03:46:25;101829.74;;;9.89;98.11
47811;BME280;33575;52.600;7.318;2023-05-02T03:48:56;101843.28;;;9.39;99.48
47811;BME280;33575;52.600;7.318;2023-05-02T03:51:26;101842.89;;;8.90;100.00
47811;BME280;33575;52.600;7.318;2023-05-02T03:53:57;101846.23;;;8.31;100.00
47811;BME280;33575;52.600;7.318;2023-05-02T03:56:27;101848.66;;;8.26;100.00
47811;BME280;33575;52.600;7.318;2023-05-02T03:58:58;101849.39;;;8.09;100.00
47811;BME280;33575;52.600;7.318;2023-05-02T04:01:29;101855.91;;;8.16;100.00
47811;BME280;33575;52.600;7.318;2023-05-02T04:03:59;101865.48;;;7.92;100.00
47811;BME280;33575;52.600;7.318;2023-05-02T04:06:30;101869.17;;;7.75;100.00
47811;BME280;33575;52.600;7.318;2023-05-02T04:09:00;101876.46;;;7.65;100.00
47811;BME280;33575;52.600;7.318;2023-05-02T04:11:30;101881.26;;;7.79;100.00
47811;BME280;33575;52.600;7.318;2023-05-02T04:14:01;101889.25;;;7.77;100.00
47811;BME280;33575;52.600;7.318;2023-05-02T04:16:32;101898.32;;;7.79;100.00
47811;BME280;33575;52.600;7.318;2023-05-02T04:19:02;101909.50;;;7.67;100.00
47811;BME280;33575;52.600;7.318;2023-05-02T04:21:35;101911.93;;;7.51;100.00
47811;BME280;33575;52.600;7.318;2023-05-02T04:24:04;101922.25;;;7.27;100.00
47811;BME280;33575;52.600;7.318;2023-05-02T04:26:34;101927.22;;;7.28;100.00
47811;BME280;33575;52.600;7.318;2023-05-02T04:29:04;101926.93;;;7.14;100.00
47811;BME280;33575;52.600;7.318;2023-05-02T04:31:35;101929.80;;;7.05;100.00
47811;BME280;33575;52.600;7.318;2023-05-02T04:34:06;101943.56;;;6.96;100.00
47811;BME280;33575;52.600;7.318;2023-05-02T04:36:36;101940.36;;;7.08;100.00
47811;BME280;33575;52.600;7.318;2023-05-02T04:39:07;101942.00;;;6.82;100.00
47811;BME280;33575;52.600;7.318;2023-05-02T04:41:37;101950.14;;;6.76;100.00
47811;BME280;33575;52.600;7.318;2023-05-02T04:44:08;101953.23;;;6.85;100.00
47811;BME280;33575;52.600;7.318;2023-05-02T04:46:39;101963.02;;;6.85;100.00
47811;BME280;33575;52.600;7.318;2023-05-02T04:49:09;101971.59;;;6.71;100.00
47811;BME280;33575;52.600;7.318;2023-05-02T04:51:40;101972.35;;;6.70;100.00
47811;BME280;33575;52.600;7.318;2023-05-02T04:54:11;101975.78;;;6.93;100.00
47811;BME280;33575;52.600;7.318;2023-05-02T04:56:41;101984.58;;;6.94;100.00
47811;BME280;33575;52.600;7.318;2023-05-02T04:59:11;101991.98;;;6.96;100.00
47811;BME280;33575;52.600;7.318;2023-05-02T05:01:43;101999.66;;;7.06;100.00
47811;BME280;33575;52.600;7.318;2023-05-02T05:04:13;102002.83;;;6.94;100.00
47811;BME280;33575;52.600;7.318;2023-05-02T05:06:44;102005.22;;;7.00;100.00
47811;BME280;33575;52.600;7.318;2023-05-02T05:09:14;102008.82;;;7.04;100.00
47811;BME280;33575;52.600;7.318;2023-05-02T05:11:44;102008.88;;;7.10;100.00
47811;BME280;33575;52.600;7.318;2023-05-02T05:14:14;102012.46;;;7.05;100.00
47811;BME280;33575;52.600;7.318;2023-05-02T05:16:45;102014.86;;;7.12;100.00
47811;BME280;33575;52.600;7.318;2023-05-02T05:19:16;102021.92;;;7.25;100.00
47811;BME280;33575;52.600;7.318;2023-05-02T05:21:46;102030.23;;;7.02;100.00
47811;BME280;33575;52.600;7.318;2023-05-02T05:24:17;102031.51;;;6.96;100.00
47811;BME280;33575;52.600;7.318;2023-05-02T05:26:47;102036.92;;;7.00;99.77
47811;BME280;33575;52.600;7.318;2023-05-02T05:29:18;102040.40;;;6.76;99.22
47811;BME280;33575;52.600;7.318;2023-05-02T05:31:49;102044.56;;;6.64;99.68
47811;BME280;33575;52.600;7.318;2023-05-02T05:34:19;102042.81;;;6.89;97.68
47811;BME280;33575;52.600;7.318;2023-05-02T05:36:50;102048.74;;;6.81;97.19
47811;BME280;33575;52.600;7.318;2023-05-02T05:39:21;102055.82;;;6.88;96.09
47811;BME280;33575;52.600;7.318;2023-05-02T05:41:51;102067.18;;;6.56;96.59
47811;BME280;33575;52.600;7.318;2023-05-02T05:44:22;102070.27;;;6.65;96.86
47811;BME280;33575;52.600;7.318;2023-05-02T05:46:52;102072.93;;;6.68;97.52
47811;BME280;33575;52.600;7.318;2023-05-02T05:49:23;102073.55;;;6.81;96.04
47811;BME280;33575;52.600;7.318;2023-05-02T05:51:53;102081.06;;;6.90;95.73
47811;BME280;33575;52.600;7.318;2023-05-02T05:54:24;102081.96;;;6.73;96.18
47811;BME280;33575;52.600;7.318;2023-05-02T05:56:55;102088.21;;;6.80;96.55
47811;BME280;33575;52.600;7.318;2023-05-02T05:59:26;102090.26;;;6.78;95.06
47811;BME280;33575;52.600;7.318;2023-05-02T06:01:56;102097.20;;;6.85;94.38
47811;BME280;33575;52.600;7.318;2023-05-02T06:04:27;102099.71;;;6.98;94.06
47811;BME280;33575;52.600;7.318;2023-05-02T06:06:58;102101.66;;;7.02;93.95
47811;BME280;33575;52.600;7.318;2023-05-02T06:09:28;102107.40;;;7.11;93.76
47811;BME280;33575;52.600;7.318;2023-05-02T06:12:00;102110.30;;;7.07;93.42
47811;BME280;33575;52.600;7.318;2023-05-02T06:14:30;102118.30;;;7.01;93.31
47811;BME280;33575;52.600;7.318;2023-05-02T06:17:00;102116.23;;;6.98;92.94
47811;BME280;33575;52.600;7.318;2023-05-02T06:19:31;102117.80;;;7.06;92.96
47811;BME280;33575;52.600;7.318;2023-05-02T06:22:01;102127.21;;;7.20;92.63
47811;BME280;33575;52.600;7.318;2023-05-02T06:24:32;102129.12;;;7.01;89.83
47811;BME280;33575;52.600;7.318;2023-05-02T06:27:03;102128.29;;;6.96;90.81
47811;BME280;33575;52.600;7.318;2023-05-02T06:29:33;102128.42;;;7.02;89.81
47811;BME280;33575;52.600;7.318;2023-05-02T06:32:04;102138.89;;;6.87;90.70
47811;BME280;33575;52.600;7.318;2023-05-02T06:34:35;102135.76;;;7.05;89.42
47811;BME280;33575;52.600;7.318;2023-05-02T06:37:05;102136.12;;;7.10;90.14
47811;BME280;33575;52.600;7.318;2023-05-02T06:39:36;102143.23;;;7.00;86.32
47811;BME280;33575;52.600;7.318;2023-05-02T06:42:07;102151.19;;;6.84;85.88
47811;BME280;33575;52.600;7.318;2023-05-02T06:44:37;102157.65;;;6.74;85.63
47811;BME280;33575;52.600;7.318;2023-05-02T06:47:08;102159.69;;;6.81;86.06
47811;BME280;33575;52.600;7.318;2023-05-02T06:49:38;102166.29;;;6.86;87.13
47811;BME280;33575;52.600;7.318;2023-05-02T06:52:09;102172.69;;;7.17;87.07
47811;BME280;33575;52.600;7.318;2023-05-02T06:54:40;102184.73;;;7.25;84.78
47811;BME280;33575;52.600;7.318;2023-05-02T06:57:10;102181.95;;;7.13;84.27
47811;BME280;33575;52.600;7.318;2023-05-02T06:59:41;102189.25;;;7.21;83.87
47811;BME280;33575;52.600;7.318;2023-05-02T07:02:12;102193.38;;;7.25;85.14
47811;BME280;33575;52.600;7.318;2023-05-02T07:04:43;102198.64;;;7.26;84.67
47811;BME280;33575;52.600;7.318;2023-05-02T07:07:13;102205.25;;;7.30;83.38
47811;BME280;33575;52.600;7.318;2023-05-02T07:09:43;102207.93;;;7.10;83.44
47811;BME280;33575;52.600;7.318;2023-05-02T07:12:14;102217.31;;;6.96;83.24
47811;BME280;33575;52.600;7.318;2023-05-02T07:14:45;102214.34;;;7.04;83.81
47811;BME280;33575;52.600;7.318;2023-05-02T07:17:16;102216.71;;;7.20;83.26
47811;BME280;33575;52.600;7.318;2023-05-02T07:19:46;102217.44;;;7.24;82.60
47811;BME280;33575;52.600;7.318;2023-05-02T07:22:17;102220.59;;;7.19;82.42
47811;BME280;33575;52.600;7.318;2023-05-02T07:24:48;102228.47;;;7.40;81.76
47811;BME280;33575;52.600;7.318;2023-05-02T07:27:18;102231.15;;;7.48;82.17
47811;BME280;33575;52.600;7.318;2023-05-02T07:29:49;102239.02;;;7.51;81.85
47811;BME280;33575;52.600;7.318;2023-05-02T07:32:20;102248.56;;;7.20;78.78
47811;BME280;33575;52.600;7.318;2023-05-02T07:34:50;102246.79;;;7.08;79.66
47811;BME280;33575;52.600;7.318;2023-05-02T07:37:22;102249.67;;;7.17;80.14
47811;BME280;33575;52.600;7.318;2023-05-02T07:39:52;102247.81;;;7.24;78.68
47811;BME280;33575;52.600;7.318;2023-05-02T07:42:27;102248.14;;;7.31;77.93
47811;BME280;33575;52.600;7.318;2023-05-02T07:44:53;102248.83;;;7.23;77.31
47811;BME280;33575;52.600;7.318;2023-05-02T07:47:24;102249.86;;;7.25;77.23
47811;BME280;33575;52.600;7.318;2023-05-02T07:49:55;102250.24;;;7.33;76.58
47811;BME280;33575;52.600;7.318;2023-05-02T07:52:25;102255.11;;;7.27;75.95
47811;BME280;33575;52.600;7.318;2023-05-02T07:54:56;102257.63;;;7.50;73.72
47811;BME280;33575;52.600;7.318;2023-05-02T07:57:26;102258.79;;;7.75;73.37
47811;BME280;33575;52.600;7.318;2023-05-02T07:59:57;102257.35;;;7.43;72.54
47811;BME280;33575;52.600;7.318;2023-05-02T08:02:28;102264.60;;;7.28;70.76
47811;BME280;33575;52.600;7.318;2023-05-02T08:04:58;102259.06;;;7.12;71.97
47811;BME280;33575;52.600;7.318;2023-05-02T08:07:30;102266.78;;;7.29;71.92
47811;BME280;33575;52.600;7.318;2023-05-02T08:10:00;102271.74;;;7.48;72.53
47811;BME280;33575;52.600;7.318;2023-05-02T08:12:30;102275.62;;;7.61;71.63
47811;BME280;33575;52.600;7.318;2023-05-02T08:15:04;102277.63;;;7.64;72.84
47811;BME280;33575;52.600;7.318;2023-05-02T08:17:31;102282.80;;;7.74;71.44
47811;BME280;33575;52.600;7.318;2023-05-02T08:20:03;102284.83;;;7.69;71.00
47811;BME280;33575;52.600;7.318;2023-05-02T08:22:32;102287.28;;;7.78;71.45
47811;BME280;33575;52.600;7.318;2023-05-02T08:25:04;102294.04;;;7.93;71.27
47811;BME280;33575;52.600;7.318;2023-05-02T08:27:34;102301.98;;;8.04;71.53
47811;BME280;33575;52.600;7.318;2023-05-02T08:30:06;102301.32;;;7.92;69.00
47811;BME280;33575;52.600;7.318;2023-05-02T08:32:35;102292.32;;;7.79;69.05
47811;BME280;33575;52.600;7.318;2023-05-02T08:35:06;102292.34;;;7.98;69.83
47811;BME280;33575;52.600;7.318;2023-05-02T08:37:37;102299.81;;;7.78;68.37
47811;BME280;33575;52.600;7.318;2023-05-02T08:40:11;102301.42;;;8.01;68.99
47811;BME280;33575;52.600;7.318;2023-05-02T08:42:41;102308.62;;;7.86;69.70
47811;BME280;33575;52.600;7.318;2023-05-02T08:45:11;102311.50;;;7.68;69.61
47811;BME280;33575;52.600;7.318;2023-05-02T08:47:40;102314.92;;;7.55;68.43
47811;BME280;33575;52.600;7.318;2023-05-02T08:50:10;102312.14;;;7.74;68.33
47811;BME280;33575;52.600;7.318;2023-05-02T08:52:41;102313.15;;;8.11;68.77
47811;BME280;33575;52.600;7.318;2023-05-02T08:55:11;102315.13;;;8.03;66.80
47811;BME280;33575;52.600;7.318;2023-05-02T08:57:42;102315.59;;;8.12;65.89
47811;BME280;33575;52.600;7.318;2023-05-02T09:00:13;102312.95;;;8.36;66.34
47811;BME280;33575;52.600;7.318;2023-05-02T09:02:53;102313.09;;;8.54;66.65
47811;BME280;33575;52.600;7.318;2023-05-02T09:05:18;102316.61;;;8.72;66.47
47811;BME280;33575;52.600;7.318;2023-05-02T09:07:45;102326.02;;;8.71;64.26
47811;BME280;33575;52.600;7.318;2023-05-02T09:10:15;102328.79;;;8.49;65.52
47811;BME280;33575;52.600;7.318;2023-05-02T09:12:45;102333.75;;;8.61;66.22
47811;BME280;33575;52.600;7.318;2023-05-02T09:15:20;102339.02;;;8.95;66.20
47811;BME280;33575;52.600;7.318;2023-05-02T09:17:47;102352.52;;;8.90;66.68
47811;BME280;33575;52.600;7.318;2023-05-02T09:20:17;102346.57;;;9.06;65.42
47811;BME280;33575;52.600;7.318;2023-05-02T09:22:49;102346.14;;;9.09;66.27
47811;BME280;33575;52.600;7.318;2023-05-02T09:25:19;102348.75;;;8.94;65.20
47811;BME280;33575;52.600;7.318;2023-05-02T09:27:50;102354.43;;;8.82;65.50
47811;BME280;33575;52.600;7.318;2023-05-02T09:30:22;102356.01;;;8.97;67.72
47811;BME280;33575;52.600;7.318;2023-05-02T09:32:51;102357.35;;;8.89;64.94
47811;BME280;33575;52.600;7.318;2023-05-02T09:35:21;102359.51;;;8.53;64.95
47811;BME280;33575;52.600;7.318;2023-05-02T09:37:52;102355.98;;;8.61;64.85
47811;BME280;33575;52.600;7.318;2023-05-02T09:40:22;102358.15;;;8.85;65.50
47811;BME280;33575;52.600;7.318;2023-05-02T09:42:52;102364.05;;;8.78;64.65
47811;BME280;33575;52.600;7.318;2023-05-02T09:45:24;102359.86;;;8.86;65.25
47811;BME280;33575;52.600;7.318;2023-05-02T09:47:53;102359.14;;;9.13;63.60
47811;BME280;33575;52.600;7.318;2023-05-02T09:50:32;102357.58;;;9.10;63.98
47811;BME280;33575;52.600;7.318;2023-05-02T09:53:00;102361.18;;;9.08;64.20
47811;BME280;33575;52.600;7.318;2023-05-02T09:55:25;102366.01;;;9.17;63.92
47811;BME280;33575;52.600;7.318;2023-05-02T09:57:56;102371.31;;;9.39;64.55
47811;BME280;33575;52.600;7.318;2023-05-02T10:02:57;102384.21;;;9.50;62.80
47811;BME280;33575;52.600;7.318;2023-05-02T10:05:28;102385.29;;;9.45;62.11
47811;BME280;33575;52.600;7.318;2023-05-02T10:07:58;102390.50;;;9.26;62.63
47811;BME280;33575;52.600;7.318;2023-05-02T10:10:31;102393.68;;;9.62;63.15
47811;BME280;33575;52.600;7.318;2023-05-02T10:13:00;102399.35;;;9.48;63.85
47811;BME280;33575;52.600;7.318;2023-05-02T10:15:31;102401.15;;;9.31;62.07
47811;BME280;33575;52.600;7.318;2023-05-02T10:18:06;102396.19;;;9.29;62.56
47811;BME280;33575;52.600;7.318;2023-05-02T10:20:34;102399.88;;;9.39;62.52
47811;BME280;33575;52.600;7.318;2023-05-02T10:23:02;102397.27;;;9.21;63.60
47811;BME280;33575;52.600;7.318;2023-05-02T10:25:32;102402.77;;;9.30;65.21
47811;BME280;33575;52.600;7.318;2023-05-02T10:28:03;102406.05;;;9.46;63.01
47811;BME280;33575;52.600;7.318;2023-05-02T10:30:34;102411.59;;;9.50;64.10
47811;BME280;33575;52.600;7.318;2023-05-02T10:33:03;102412.57;;;9.61;64.02
47811;BME280;33575;52.600;7.318;2023-05-02T10:35:35;102413.69;;;9.84;65.06
47811;BME280;33575;52.600;7.318;2023-05-02T10:38:05;102418.96;;;9.74;63.53
47811;BME280;33575;52.600;7.318;2023-05-02T10:40:35;102415.31;;;9.72;62.62
47811;BME280;33575;52.600;7.318;2023-05-02T10:43:06;102419.76;;;9.67;63.38
47811;BME280;33575;52.600;7.318;2023-05-02T10:45:36;102418.99;;;9.67;63.35
47811;BME280;33575;52.600;7.318;2023-05-02T10:48:12;102421.50;;;9.43;64.95
47811;BME280;33575;52.600;7.318;2023-05-02T10:50:42;102428.90;;;9.27;64.43
47811;BME280;33575;52.600;7.318;2023-05-02T10:55:39;102431.35;;;9.66;64.22
47811;BME280;33575;52.600;7.318;2023-05-02T11:00:39;102432.48;;;9.72;62.80
47811;BME280;33575;52.600;7.318;2023-05-02T11:03:10;102432.00;;;9.73;63.69
47811;BME280;33575;52.600;7.318;2023-05-02T11:10:42;102427.75;;;9.42;64.47
47811;BME280;33575;52.600;7.318;2023-05-02T11:13:12;102425.60;;;9.61;64.09
47811;BME280;33575;52.600;7.318;2023-05-02T11:18:14;102423.52;;;9.54;64.53
47811;BME280;33575;52.600;7.318;2023-05-02T11:20:44;102426.69;;;9.85;65.54
47811;BME280;33575;52.600;7.318;2023-05-02T11:23:21;102425.24;;;9.78;65.65
47811;BME280;33575;52.600;7.318;2023-05-02T11:25:47;102433.54;;;9.74;66.36
47811;BME280;33575;52.600;7.318;2023-05-02T11:30:46;102428.61;;;10.08;65.81
47811;BME280;33575;52.600;7.318;2023-05-02T11:33:17;102432.21;;;10.09;65.87
47811;BME280;33575;52.600;7.318;2023-05-02T11:35:47;102441.84;;;9.45;66.16
47811;BME280;33575;52.600;7.318;2023-05-02T11:38:19;102438.30;;;9.53;65.96
47811;BME280;33575;52.600;7.318;2023-05-02T11:40:52;102441.89;;;9.40;65.76
47811;BME280;33575;52.600;7.318;2023-05-02T11:43:19;102439.93;;;9.71;67.10
47811;BME280;33575;52.600;7.318;2023-05-02T11:45:49;102443.44;;;9.89;66.90
47811;BME280;33575;52.600;7.318;2023-05-02T11:48:21;102446.25;;;9.75;65.35
47811;BME280;33575;52.600;7.318;2023-05-02T11:50:54;102446.05;;;9.82;64.05
47811;BME280;33575;52.600;7.318;2023-05-02T11:53:23;102449.70;;;9.72;63.58
47811;BME280;33575;52.600;7.318;2023-05-02T11:55:54;102444.01;;;9.91;63.32
47811;BME280;33575;52.600;7.318;2023-05-02T11:58:23;102445.29;;;9.95;62.50
47811;BME280;33575;52.600;7.318;2023-05-02T12:00:53;102456.53;;;9.74;62.47
47811;BME280;33575;52.600;7.318;2023-05-02T12:03:27;102451.45;;;9.96;63.48
47811;BME280;33575;52.600;7.318;2023-05-02T12:05:55;102454.97;;;9.82;62.15
47811;BME280;33575;52.600;7.318;2023-05-02T12:08:26;102455.62;;;9.95;62.56
47811;BME280;33575;52.600;7.318;2023-05-02T12:10:56;102449.93;;;10.05;62.97
47811;BME280;33575;52.600;7.318;2023-05-02T12:13:26;102461.56;;;9.79;62.95
47811;BME280;33575;52.600;7.318;2023-05-02T12:15:57;102457.33;;;10.06;62.56
47811;BME280;33575;52.600;7.318;2023-05-02T12:18:27;102460.53;;;10.18;62.98
47811;BME280;33575;52.600;7.318;2023-05-02T12:20:57;102467.15;;;10.05;61.69
47811;BME280;33575;52.600;7.318;2023-05-02T12:23:28;102465.02;;;10.10;60.79
47811;BME280;33575;52.600;7.318;2023-05-02T12:25:59;102467.26;;;10.00;61.80
47811;BME280;33575;52.600;7.318;2023-05-02T12:28:29;102466.42;;;10.12;62.45
47811;BME280;33575;52.600;7.318;2023-05-02T12:31:09;102465.92;;;10.09;62.06
47811;BME280;33575;52.600;7.318;2023-05-02T12:33:40;102467.94;;;9.95;61.91
47811;BME280;33575;52.600;7.318;2023-05-02T12:36:05;102470.34;;;9.92;63.15
47811;BME280;33575;52.600;7.318;2023-05-02T12:38:32;102471.50;;;9.87;64.55
47811;BME280;33575;52.600;7.318;2023-05-02T12:41:02;102472.68;;;9.93;62.91
47811;BME280;33575;52.600;7.318;2023-05-02T12:46:09;102491.95;;;10.12;63.64
47811;BME280;33575;52.600;7.318;2023-05-02T12:48:34;102487.32;;;10.19;63.25
47811;BME280;33575;52.600;7.318;2023-05-02T12:51:05;102500.27;;;9.78;65.15
47811;BME280;33575;52.600;7.318;2023-05-02T12:53:40;102504.73;;;9.82;64.92
47811;BME280;33575;52.600;7.318;2023-05-02T12:56:06;102501.84;;;9.96;64.98
47811;BME280;33575;52.600;7.318;2023-05-02T12:58:41;102509.13;;;9.82;64.08
47811;BME280;33575;52.600;7.318;2023-05-02T13:01:07;102506.92;;;9.83;63.90
47811;BME280;33575;52.600;7.318;2023-05-02T13:03:38;102500.75;;;10.11;62.89
47811;BME280;33575;52.600;7.318;2023-05-02T13:06:09;102505.81;;;10.11;63.71
47811;BME280;33575;52.600;7.318;2023-05-02T13:08:39;102498.84;;;10.08;62.20
47811;BME280;33575;52.600;7.318;2023-05-02T13:11:09;102495.40;;;10.23;62.40
47811;BME280;33575;52.600;7.318;2023-05-02T13:13:40;102498.38;;;10.38;63.12
47811;BME280;33575;52.600;7.318;2023-05-02T13:16:11;102501.68;;;10.35;62.83
47811;BME280;33575;52.600;7.318;2023-05-02T13:18:41;102502.75;;;10.43;63.86
47811;BME280;33575;52.600;7.318;2023-05-02T13:21:12;102515.09;;;10.34;63.96
47811;BME280;33575;52.600;7.318;2023-05-02T13:23:42;102515.25;;;10.23;64.19
47811;BME280;33575;52.600;7.318;2023-05-02T13:26:13;102517.78;;;10.20;64.66
47811;BME280;33575;52.600;7.318;2023-05-02T13:28:43;102517.60;;;10.30;64.84
47811;BME280;33575;52.600;7.318;2023-05-02T13:31:14;102529.03;;;10.05;65.35